| time (UTC) | temp F | wind direction | speed MPH | gust MPH | rain 1hr in | rain 24hr in | rain mn in | humidity % | barometer mb |
| 20260903100004 | 70 | 153 | 3.0 | 11.0 | 0.00 | 1.63 | 0.01 | 92 | 1013.2 |
| 20260903095005 | 70 | 179 | 3.0 | 11.0 | 0.00 | 1.63 | 0.01 | 92 | 1013.3 |
| 20260903094003 | 70 | 198 | 1.0 | 7.0 | 0.00 | 1.63 | 0.01 | 94 | 1013.2 |
| 20260903093006 | 70 | 207 | 1.0 | 6.0 | 0.00 | 1.63 | 0.01 | 94 | 1013.3 |
| 20260903092003 | 69 | 178 | 1.0 | 4.0 | 0.00 | 1.63 | 0.01 | 95 | 1013.3 |
| 20260903091004 | 69 | 131 | 1.0 | 4.0 | 0.00 | 1.63 | 0.01 | 95 | 1013.3 |
| 20260903090004 | 69 | 177 | 1.0 | 4.0 | 0.00 | 1.63 | 0.01 | 95 | 1013.3 |
| 20260903085003 | 69 | 186 | 1.0 | 5.0 | 0.00 | 1.63 | 0.01 | 95 | 1013.0 |
| 20260903084005 | 69 | 165 | 1.0 | 5.0 | 0.00 | 1.63 | 0.01 | 95 | 1013.1 |
| 20260903083003 | 69 | 156 | 1.0 | 8.0 | 0.00 | 1.63 | 0.01 | 95 | 1013.2 |
| 20260903082005 | 69 | 172 | 2.0 | 7.0 | 0.00 | 1.63 | 0.01 | 95 | 1013.2 |
| 20260903081003 | 69 | 176 | 1.0 | 7.0 | 0.00 | 1.63 | 0.01 | 95 | 1013.1 |
| 20260903080214 | 69 | 168 | 1.0 | 7.0 | 0.00 | 1.63 | 0.01 | 95 | 1013.2 |
| 20260903075004 | 69 | 171 | 1.0 | 6.0 | 0.00 | 1.63 | 0.01 | 95 | 1013.2 |
| 20260903074004 | 69 | 150 | 1.0 | 6.0 | 0.00 | 1.63 | 0.01 | 95 | 1013.3 |
| 20260903073003 | 69 | 163 | 2.0 | 7.0 | 0.00 | 1.63 | 0.01 | 95 | 1013.4 |
| 20260903072003 | 69 | 218 | 1.0 | 9.0 | 0.00 | 1.63 | 0.01 | 95 | 1013.7 |
| 20260903071003 | 69 | 206 | 1.0 | 8.0 | 0.00 | 1.63 | 0.01 | 96 | 1013.5 |
| 20260903070214 | 69 | 165 | 1.0 | 8.0 | 0.00 | 1.63 | 0.01 | 96 | 1013.7 |
| 20260903065003 | 69 | 218 | 1.0 | 6.0 | 0.00 | 1.63 | 0.01 | 97 | 1013.5 |
| 20260903064214 | 69 | 250 | 1.0 | 7.0 | 0.00 | 1.63 | 0.01 | 97 | 1013.3 |
| 20260903063003 | 69 | 324 | 0.0 | 5.0 | 0.01 | 1.63 | 0.01 | 98 | 1013.3 |
| 20260903062214 | 68 | 193 | 0.0 | 5.0 | 0.01 | 1.63 | 0.01 | 98 | 1013.3 |
| 20260903061003 | 68 | 188 | 1.0 | 8.0 | 0.01 | 1.63 | 0.01 | 98 | 1013.1 |
| 20260903060214 | 68 | 217 | 1.0 | 7.0 | 0.01 | 1.63 | 0.01 | 98 | 1013.4 |
| 20260903055003 | 68 | 257 | 0.0 | 3.0 | 0.01 | 1.63 | 0.01 | 99 | 1013.1 |
| 20260903054003 | 68 | 0 | 0.0 | 2.0 | 0.01 | 1.63 | 0.01 | 99 | 1013.3 |
| 20260903053005 | 68 | 0 | 0.0 | 0.0 | 0.00 | 1.62 | 0.00 | 99 | 1013.3 |
| 20260903052004 | 68 | 0 | 0.0 | 0.0 | 0.00 | 1.62 | 0.00 | 99 | 1013.3 |
| 20260903051004 | 68 | 0 | 0.0 | 0.0 | 0.00 | 1.62 | 0.00 | 98 | 1013.2 |
| 20260903050005 | 68 | 0 | 0.0 | 1.0 | 0.00 | 1.62 | 0.00 | 97 | 1013.3 |
| 20260903045004 | 68 | 0 | 0.0 | 1.0 | 0.00 | 1.62 | 0.00 | 97 | 1013.1 |
| 20260903044005 | 68 | 274 | 0.0 | 2.0 | 0.00 | 1.62 | 0.00 | 97 | 1013.0 |
| 20260903043215 | 68 | 0 | 0.0 | 1.0 | 0.00 | 1.62 | 0.00 | 97 | 1013.1 |
| 20260903042217 | 69 | 139 | 1.0 | 6.0 | 0.00 | 1.62 | 0.00 | 97 | 1013.0 |
| 20260903041003 | 68 | 188 | 1.0 | 10.0 | 0.00 | 1.62 | 0.00 | 97 | 1013.2 |
| 20260903040009 | 68 | 232 | 1.0 | 10.0 | 0.00 | 1.62 | 0.00 | 97 | 1013.3 |
| 20260903035004 | 68 | 216 | 2.0 | 9.0 | 0.00 | 1.62 | 1.62 | 97 | 1013.5 |
| 20260903034004 | 68 | 231 | 5.0 | 18.0 | 0.00 | 1.62 | 1.62 | 98 | 1013.3 |
| 20260903033005 | 68 | 220 | 4.0 | 14.0 | 0.00 | 1.62 | 1.62 | 98 | 1013.2 |
| 20260903032004 | 68 | 203 | 3.0 | 15.0 | 0.00 | 1.62 | 1.62 | 98 | 1013.2 |
| 20260903031005 | 68 | 196 | 2.0 | 7.0 | 0.00 | 1.62 | 1.62 | 98 | 1012.6 |
| 20260903030004 | 68 | 186 | 2.0 | 7.0 | 0.01 | 1.62 | 1.62 | 97 | 1012.2 |
| 20260903025005 | 68 | 142 | 2.0 | 6.0 | 0.01 | 1.62 | 1.62 | 97 | 1012.5 |
| 20260903024214 | 68 | 152 | 1.0 | 6.0 | 0.04 | 1.62 | 1.62 | 97 | 1012.6 |
| 20260903023214 | 68 | 140 | 2.0 | 8.0 | 0.04 | 1.62 | 1.62 | 96 | 1012.7 |
| 20260903022214 | 69 | 164 | 2.0 | 12.0 | 0.05 | 1.62 | 1.62 | 96 | 1013.2 |
| 20260903021003 | 69 | 179 | 3.0 | 8.0 | 0.05 | 1.62 | 1.62 | 96 | 1013.2 |
| 20260903020004 | 70 | 157 | 3.0 | 7.0 | 0.04 | 1.61 | 1.61 | 95 | 1012.9 |
| 20260903015004 | 71 | 167 | 1.0 | 8.0 | 0.04 | 1.61 | 1.61 | 95 | 1013.6 |
| 20260903014005 | 72 | 220 | 3.0 | 12.0 | 0.01 | 1.58 | 1.58 | 94 | 1014.2 |
| 20260903013004 | 72 | 253 | 2.0 | 10.0 | 0.01 | 1.58 | 1.58 | 94 | 1014.1 |
| 20260903012003 | 72 | 144 | 2.0 | 5.0 | 0.00 | 1.57 | 1.57 | 93 | 1013.7 |
| 20260903011003 | 73 | 34 | 0.0 | 4.0 | 0.00 | 1.57 | 1.57 | 92 | 1014.0 |
| 20260903010003 | 73 | 37 | 0.0 | 2.0 | 0.00 | 1.57 | 1.57 | 91 | 1014.7 |
| 20260903005003 | 73 | 30 | 1.0 | 6.0 | 0.00 | 1.57 | 1.57 | 91 | 1015.1 |
| 20260903004003 | 73 | 127 | 1.0 | 4.0 | 0.00 | 1.57 | 1.57 | 90 | 1014.4 |
| 20260903003003 | 74 | 135 | 1.0 | 5.0 | 0.00 | 1.57 | 1.57 | 90 | 1013.4 |
| 20260903002003 | 74 | 130 | 1.0 | 7.0 | 0.00 | 1.57 | 1.57 | 90 | 1013.5 |
| 20260903001003 | 74 | 171 | 2.0 | 7.0 | 0.00 | 1.57 | 1.57 | 90 | 1013.3 |
| 20260903000005 | 74 | 149 | 2.0 | 9.0 | 0.00 | 1.57 | 1.57 | 90 | 1013.3 |
| 20260902235003 | 74 | 154 | 3.0 | 9.0 | 0.00 | 1.57 | 1.57 | 90 | 1013.2 |
| 20260902234003 | 74 | 165 | 3.0 | 10.0 | 0.00 | 1.57 | 1.57 | 90 | 1012.9 |
| 20260902233213 | 74 | 171 | 3.0 | 10.0 | 0.00 | 1.57 | 1.57 | 89 | 1013.1 |
| 20260902232003 | 74 | 157 | 2.0 | 7.0 | 0.00 | 1.57 | 1.57 | 89 | 1013.3 |
| 20260902231213 | 75 | 152 | 3.0 | 10.0 | 0.00 | 1.57 | 1.57 | 88 | 1013.4 |
| 20260902230003 | 75 | 206 | 2.0 | 7.0 | 0.00 | 1.57 | 1.57 | 88 | 1013.3 |
| 20260902225003 | 75 | 164 | 2.0 | 5.0 | 0.00 | 1.57 | 1.57 | 86 | 1013.0 |
| 20260902224003 | 76 | 154 | 2.0 | 7.0 | 0.00 | 1.57 | 1.57 | 84 | 1012.7 |
| 20260902223004 | 76 | 158 | 1.0 | 6.0 | 0.00 | 1.57 | 1.57 | 84 | 1012.8 |
| 20260902222004 | 77 | 159 | 1.0 | 5.0 | 0.00 | 1.57 | 1.57 | 82 | 1012.7 |
| 20260902221004 | 78 | 150 | 1.0 | 4.0 | 0.00 | 1.57 | 1.57 | 81 | 1012.8 |
| 20260902220004 | 79 | 135 | 0.0 | 4.0 | 0.00 | 1.57 | 1.57 | 81 | 1013.2 |
| 20260902215005 | 79 | 146 | 0.0 | 5.0 | 0.00 | 1.57 | 1.57 | 79 | 1014.1 |
| 20260902214006 | 79 | 0 | 0.0 | 0.0 | 0.00 | 1.57 | 1.57 | 79 | 1014.6 |
| 20260902213007 | 79 | 135 | 0.0 | 3.0 | 0.00 | 1.57 | 1.57 | 79 | 1014.8 |
| 20260902212004 | 79 | 135 | 0.0 | 3.0 | 0.00 | 1.57 | 1.57 | 79 | 1015.2 |
| 20260902211004 | 79 | 0 | 0.0 | 1.0 | 0.00 | 1.57 | 1.57 | 78 | 1015.4 |
| 20260902210004 | 80 | 162 | 0.0 | 4.0 | 0.00 | 1.57 | 1.57 | 76 | 1015.1 |
| 20260902205004 | 81 | 72 | 1.0 | 6.0 | 0.00 | 1.57 | 1.57 | 74 | 1015.2 |
| 20260902204005 | 81 | 224 | 1.0 | 8.0 | 0.00 | 1.57 | 1.57 | 75 | 1015.2 |
| 20260902203005 | 81 | 249 | 0.0 | 4.0 | 0.00 | 1.57 | 1.57 | 75 | 1015.1 |
| 20260902202004 | 81 | 159 | 2.0 | 8.0 | 0.00 | 1.57 | 1.57 | 74 | 1015.0 |
| 20260902201003 | 81 | 174 | 2.0 | 5.0 | 0.00 | 1.57 | 1.57 | 74 | 1014.9 |
| 20260902200004 | 81 | 144 | 1.0 | 5.0 | 0.00 | 1.57 | 1.57 | 74 | 1014.7 |
| 20260902195003 | 81 | 184 | 1.0 | 5.0 | 0.00 | 1.57 | 1.57 | 74 | 1014.7 |
| 20260902194005 | 81 | 196 | 2.0 | 10.0 | 0.00 | 1.57 | 1.57 | 73 | 1014.8 |
| 20260902193004 | 81 | 151 | 2.0 | 6.0 | 0.00 | 1.57 | 1.57 | 73 | 1014.9 |
| 20260902192004 | 82 | 177 | 2.0 | 10.0 | 0.00 | 1.57 | 1.57 | 73 | 1014.9 |
| 20260902191005 | 82 | 198 | 1.0 | 7.0 | 0.00 | 1.57 | 1.57 | 73 | 1014.9 |
| 20260902190006 | 81 | 168 | 2.0 | 8.0 | 0.00 | 1.57 | 1.57 | 73 | 1015.2 |
| 20260902185005 | 81 | 228 | 3.0 | 9.0 | 0.00 | 1.57 | 1.57 | 73 | 1015.2 |
| 20260902184003 | 80 | 193 | 2.0 | 8.0 | 0.00 | 1.57 | 1.57 | 75 | 1015.5 |
| 20260902183213 | 80 | 190 | 2.0 | 10.0 | 0.00 | 1.57 | 1.57 | 76 | 1015.6 |
| 20260902182004 | 79 | 176 | 2.0 | 7.0 | 0.00 | 1.57 | 1.57 | 78 | 1015.7 |
| 20260902181003 | 78 | 176 | 1.0 | 7.0 | 0.00 | 1.57 | 1.57 | 79 | 1015.7 |
| 20260902180006 | 78 | 150 | 2.0 | 5.0 | 0.00 | 1.57 | 1.57 | 82 | 1015.4 |
| 20260902175003 | 77 | 168 | 2.0 | 9.0 | 0.00 | 1.57 | 1.57 | 83 | 1015.4 |
| 20260902174004 | 76 | 151 | 2.0 | 7.0 | 0.00 | 1.57 | 1.57 | 90 | 1015.8 |
| 20260902173004 | 75 | 166 | 3.0 | 8.0 | 0.00 | 1.57 | 1.57 | 94 | 1015.5 |
| 20260902172213 | 74 | 152 | 2.0 | 6.0 | 0.00 | 1.57 | 1.57 | 98 | 1015.6 |
| 20260902171215 | 74 | 156 | 3.0 | 8.0 | 0.00 | 1.57 | 1.57 | 100 | 1015.5 |
| 20260902170004 | 72 | 160 | 3.0 | 10.0 | 0.00 | 1.57 | 1.57 | 99 | 1015.7 |
| 20260902165004 | 71 | 180 | 2.0 | 10.0 | 0.00 | 1.57 | 1.57 | 100 | 1015.6 |
| 20260902164003 | 71 | 153 | 3.0 | 8.0 | 0.00 | 1.57 | 1.57 | 100 | 1015.7 |
| 20260902163212 | 70 | 151 | 3.0 | 8.0 | 0.00 | 1.57 | 1.57 | 100 | 1015.5 |
| 20260902162004 | 69 | 137 | 2.0 | 6.0 | 0.00 | 1.57 | 1.57 | 100 | 1015.9 |
| 20260902161004 | 68 | 140 | 2.0 | 6.0 | 0.01 | 1.57 | 1.57 | 100 | 1016.0 |
| 20260902160004 | 67 | 132 | 3.0 | 6.0 | 0.06 | 1.57 | 1.57 | 100 | 1016.4 |
| 20260902155004 | 67 | 142 | 2.0 | 6.0 | 0.38 | 1.57 | 1.57 | 100 | 1016.5 |
| 20260902154214 | 67 | 144 | 3.0 | 8.0 | 0.89 | 1.57 | 1.57 | 100 | 1016.7 |
| 20260902153003 | 67 | 141 | 4.0 | 9.0 | 0.97 | 1.57 | 1.57 | 100 | 1017.2 |
| 20260902152003 | 67 | 140 | 3.0 | 7.0 | 0.99 | 1.57 | 1.57 | 100 | 1018.0 |
| 20260902151004 | 68 | 141 | 2.0 | 6.0 | 1.00 | 1.56 | 1.56 | 100 | 1018.8 |
| 20260902150005 | 67 | 135 | 1.0 | 6.0 | 1.12 | 1.51 | 1.51 | 100 | 1019.2 |
| 20260902145005 | 68 | 313 | 3.0 | 13.0 | 1.00 | 1.19 | 1.19 | 100 | 1019.3 |
| 20260902144004 | 69 | 313 | 2.0 | 8.0 | 0.64 | 0.66 | 0.66 | 100 | 1019.2 |
| 20260902143006 | 68 | 140 | 1.0 | 4.0 | 0.59 | 0.60 | 0.60 | 100 | 1017.3 |
| 20260902142004 | 68 | 135 | 2.0 | 4.0 | 0.58 | 0.58 | 0.58 | 100 | 1017.3 |
| 20260902141004 | 68 | 0 | 0.0 | 1.0 | 0.56 | 0.56 | 0.56 | 100 | 1018.1 |
| 20260902140004 | 68 | 186 | 1.0 | 4.0 | 0.39 | 0.39 | 0.39 | 100 | 1017.3 |
| 20260902135004 | 68 | 267 | 0.0 | 6.0 | 0.17 | 0.17 | 0.17 | 100 | 1017.4 |
| 20260902134004 | 68 | 269 | 1.0 | 6.0 | 0.02 | 0.02 | 0.02 | 100 | 1017.5 |
| 20260902133004 | 68 | 0 | 0.0 | 0.0 | 0.01 | 0.01 | 0.01 | 100 | 1017.2 |
| 20260902132004 | 68 | 0 | 0.0 | 1.0 | 0.00 | 0.00 | 0.00 | 100 | 1017.3 |
| 20260902131213 | 68 | 0 | 0.0 | 2.0 | 0.00 | 0.00 | 0.00 | 100 | 1017.3 |
| 20260902130005 | 68 | 0 | 0.0 | 0.0 | 0.00 | 0.00 | 0.00 | 100 | 1017.0 |
| 20260902125215 | 67 | 0 | 0.0 | 0.0 | 0.00 | 0.00 | 0.00 | 100 | 1017.0 |
| 20260902124005 | 67 | 360 | 0.0 | 2.0 | 0.00 | 0.00 | 0.00 | 100 | 1016.7 |
| 20260902123004 | 67 | 0 | 0.0 | 0.0 | 0.00 | 0.00 | 0.00 | 100 | 1016.7 |
| 20260902122005 | 67 | 19 | 0.0 | 2.0 | 0.00 | 0.00 | 0.00 | 100 | 1016.9 |
| 20260902121003 | 67 | 0 | 0.0 | 0.0 | 0.00 | 0.00 | 0.00 | 100 | 1016.6 |
| 20260902120004 | 67 | 0 | 0.0 | 0.0 | 0.00 | 0.00 | 0.00 | 100 | 1016.1 |
| 20260902115004 | 67 | 0 | 0.0 | 0.0 | 0.00 | 0.00 | 0.00 | 100 | 1015.9 |
| 20260902114005 | 66 | 0 | 0.0 | 0.0 | 0.00 | 0.00 | 0.00 | 100 | 1016.0 |
| 20260902113004 | 66 | 0 | 0.0 | 0.0 | 0.00 | 0.00 | 0.00 | 100 | 1016.2 |
| 20260902112003 | 66 | 0 | 0.0 | 0.0 | 0.00 | 0.00 | 0.00 | 100 | 1016.0 |
| 20260902111003 | 66 | 0 | 0.0 | 0.0 | 0.00 | 0.00 | 0.00 | 100 | 1016.0 |
| 20260902110005 | 66 | 0 | 0.0 | 0.0 | 0.00 | 0.00 | 0.00 | 100 | 1016.0 |
| 20260902105004 | 66 | 0 | 0.0 | 0.0 | 0.00 | 0.00 | 0.00 | 100 | 1015.9 |
| 20260902104004 | 66 | 0 | 0.0 | 0.0 | 0.00 | 0.00 | 0.00 | 100 | 1015.8 |
| 20260902103003 | 66 | 0 | 0.0 | 0.0 | 0.00 | 0.00 | 0.00 | 100 | 1016.0 |
| 20260902102003 | 66 | 0 | 0.0 | 0.0 | 0.00 | 0.00 | 0.00 | 100 | 1016.4 |
| 20260902101004 | 66 | 0 | 0.0 | 0.0 | 0.00 | 0.00 | 0.00 | 100 | 1016.4 |